sensor_id;sensor_type;location;lat;lon;timestamp;P1;durP1;ratioP1;P2;durP2;ratioP2
71896;SDS011;59767;51.344;12.362;2023-07-09T00:01:56;9.45;;;4.65;;
71896;SDS011;59767;51.344;12.362;2023-07-09T00:05:00;9.80;;;4.80;;
71896;SDS011;59767;51.344;12.362;2023-07-09T00:08:04;10.93;;;4.97;;
71896;SDS011;59767;51.344;12.362;2023-07-09T00:11:08;12.00;;;4.70;;
71896;SDS011;59767;51.344;12.362;2023-07-09T00:14:13;11.40;;;4.90;;
71896;SDS011;59767;51.344;12.362;2023-07-09T00:20:30;11.68;;;5.20;;
71896;SDS011;59767;51.344;12.362;2023-07-09T00:23:35;10.48;;;4.97;;
71896;SDS011;59767;51.344;12.362;2023-07-09T00:26:42;10.35;;;4.85;;
71896;SDS011;59767;51.344;12.362;2023-07-09T00:29:46;12.65;;;4.75;;
71896;SDS011;59767;51.344;12.362;2023-07-09T00:32:50;10.90;;;5.20;;
71896;SDS011;59767;51.344;12.362;2023-07-09T00:35:56;14.48;;;4.70;;
71896;SDS011;59767;51.344;12.362;2023-07-09T00:39:01;10.13;;;5.35;;
71896;SDS011;59767;51.344;12.362;2023-07-09T00:42:15;8.95;;;5.28;;
71896;SDS011;59767;51.344;12.362;2023-07-09T00:45:23;9.93;;;5.03;;
71896;SDS011;59767;51.344;12.362;2023-07-09T00:48:28;10.68;;;4.60;;
71896;SDS011;59767;51.344;12.362;2023-07-09T00:51:36;10.05;;;5.50;;
71896;SDS011;59767;51.344;12.362;2023-07-09T00:54:45;8.93;;;4.88;;
71896;SDS011;59767;51.344;12.362;2023-07-09T00:57:51;10.48;;;4.70;;
71896;SDS011;59767;51.344;12.362;2023-07-09T01:01:02;9.95;;;5.20;;
71896;SDS011;59767;51.344;12.362;2023-07-09T01:04:09;11.48;;;5.18;;
71896;SDS011;59767;51.344;12.362;2023-07-09T01:07:14;8.75;;;4.70;;
71896;SDS011;59767;51.344;12.362;2023-07-09T01:10:20;8.52;;;4.60;;
71896;SDS011;59767;51.344;12.362;2023-07-09T01:13:24;10.65;;;5.10;;
71896;SDS011;59767;51.344;12.362;2023-07-09T01:16:31;11.57;;;4.90;;
71896;SDS011;59767;51.344;12.362;2023-07-09T01:19:39;12.68;;;5.50;;
71896;SDS011;59767;51.344;12.362;2023-07-09T01:22:48;11.77;;;5.03;;
71896;SDS011;59767;51.344;12.362;2023-07-09T01:25:54;12.48;;;4.85;;
71896;SDS011;59767;51.344;12.362;2023-07-09T01:28:59;10.88;;;5.22;;
71896;SDS011;59767;51.344;12.362;2023-07-09T01:32:05;10.43;;;4.75;;
71896;SDS011;59767;51.344;12.362;2023-07-09T01:35:10;10.77;;;4.93;;
71896;SDS011;59767;51.344;12.362;2023-07-09T01:38:15;9.98;;;5.43;;
71896;SDS011;59767;51.344;12.362;2023-07-09T01:41:20;10.20;;;4.90;;
71896;SDS011;59767;51.344;12.362;2023-07-09T01:44:26;9.23;;;4.35;;
71896;SDS011;59767;51.344;12.362;2023-07-09T01:47:33;9.80;;;4.72;;
71896;SDS011;59767;51.344;12.362;2023-07-09T01:50:37;8.02;;;4.50;;
71896;SDS011;59767;51.344;12.362;2023-07-09T01:53:45;11.25;;;5.05;;
71896;SDS011;59767;51.344;12.362;2023-07-09T01:56:49;8.65;;;4.55;;
71896;SDS011;59767;51.344;12.362;2023-07-09T01:59:54;12.77;;;5.00;;
71896;SDS011;59767;51.344;12.362;2023-07-09T02:02:58;9.27;;;4.88;;
71896;SDS011;59767;51.344;12.362;2023-07-09T02:06:04;10.98;;;4.78;;
71896;SDS011;59767;51.344;12.362;2023-07-09T02:09:14;8.88;;;4.70;;
71896;SDS011;59767;51.344;12.362;2023-07-09T02:12:18;10.07;;;5.18;;
71896;SDS011;59767;51.344;12.362;2023-07-09T02:15:22;10.05;;;5.10;;
71896;SDS011;59767;51.344;12.362;2023-07-09T02:18:27;8.75;;;4.55;;
71896;SDS011;59767;51.344;12.362;2023-07-09T02:21:32;10.15;;;5.03;;
71896;SDS011;59767;51.344;12.362;2023-07-09T02:24:36;10.45;;;4.60;;
71896;SDS011;59767;51.344;12.362;2023-07-09T02:27:40;9.60;;;4.78;;
71896;SDS011;59767;51.344;12.362;2023-07-09T02:30:44;10.07;;;4.78;;
71896;SDS011;59767;51.344;12.362;2023-07-09T02:33:48;8.75;;;4.72;;
71896;SDS011;59767;51.344;12.362;2023-07-09T02:36:55;9.77;;;5.00;;
71896;SDS011;59767;51.344;12.362;2023-07-09T02:40:00;11.68;;;5.03;;
71896;SDS011;59767;51.344;12.362;2023-07-09T02:43:04;8.95;;;4.53;;
71896;SDS011;59767;51.344;12.362;2023-07-09T02:46:09;11.57;;;5.10;;
71896;SDS011;59767;51.344;12.362;2023-07-09T02:49:13;10.35;;;4.90;;
71896;SDS011;59767;51.344;12.362;2023-07-09T02:52:18;10.85;;;4.93;;
71896;SDS011;59767;51.344;12.362;2023-07-09T02:55:22;10.40;;;4.40;;
71896;SDS011;59767;51.344;12.362;2023-07-09T02:58:26;10.85;;;5.00;;
71896;SDS011;59767;51.344;12.362;2023-07-09T03:01:30;12.60;;;4.70;;
71896;SDS011;59767;51.344;12.362;2023-07-09T03:04:36;10.20;;;4.78;;
71896;SDS011;59767;51.344;12.362;2023-07-09T03:07:40;12.27;;;4.78;;
71896;SDS011;59767;51.344;12.362;2023-07-09T03:10:44;10.52;;;4.68;;
71896;SDS011;59767;51.344;12.362;2023-07-09T03:13:48;12.45;;;5.05;;
71896;SDS011;59767;51.344;12.362;2023-07-09T03:16:52;10.00;;;4.82;;
71896;SDS011;59767;51.344;12.362;2023-07-09T03:19:57;12.70;;;5.30;;
71896;SDS011;59767;51.344;12.362;2023-07-09T03:23:01;15.80;;;5.18;;
71896;SDS011;59767;51.344;12.362;2023-07-09T03:26:05;10.93;;;5.15;;
71896;SDS011;59767;51.344;12.362;2023-07-09T03:29:09;12.48;;;4.95;;
71896;SDS011;59767;51.344;12.362;2023-07-09T03:32:13;12.30;;;5.13;;
71896;SDS011;59767;51.344;12.362;2023-07-09T03:35:17;13.88;;;5.10;;
71896;SDS011;59767;51.344;12.362;2023-07-09T03:38:21;11.32;;;5.05;;
71896;SDS011;59767;51.344;12.362;2023-07-09T03:41:25;16.25;;;5.53;;
71896;SDS011;59767;51.344;12.362;2023-07-09T03:44:30;10.27;;;4.93;;
71896;SDS011;59767;51.344;12.362;2023-07-09T03:47:33;13.90;;;4.75;;
71896;SDS011;59767;51.344;12.362;2023-07-09T03:50:38;11.60;;;5.05;;
71896;SDS011;59767;51.344;12.362;2023-07-09T03:53:42;13.85;;;5.50;;
71896;SDS011;59767;51.344;12.362;2023-07-09T03:56:47;11.23;;;5.32;;
71896;SDS011;59767;51.344;12.362;2023-07-09T03:59:51;11.55;;;4.85;;
71896;SDS011;59767;51.344;12.362;2023-07-09T04:02:55;12.10;;;5.05;;
71896;SDS011;59767;51.344;12.362;2023-07-09T04:06:03;11.10;;;5.60;;
71896;SDS011;59767;51.344;12.362;2023-07-09T04:09:07;12.55;;;5.18;;
71896;SDS011;59767;51.344;12.362;2023-07-09T04:12:12;8.65;;;4.78;;
71896;SDS011;59767;51.344;12.362;2023-07-09T04:15:16;11.23;;;5.28;;
71896;SDS011;59767;51.344;12.362;2023-07-09T04:18:20;12.90;;;4.65;;
71896;SDS011;59767;51.344;12.362;2023-07-09T04:21:24;12.23;;;5.05;;
71896;SDS011;59767;51.344;12.362;2023-07-09T04:24:29;11.57;;;4.88;;
71896;SDS011;59767;51.344;12.362;2023-07-09T04:27:34;13.45;;;5.28;;
71896;SDS011;59767;51.344;12.362;2023-07-09T04:30:38;10.85;;;5.22;;
71896;SDS011;59767;51.344;12.362;2023-07-09T04:33:42;12.15;;;5.15;;
71896;SDS011;59767;51.344;12.362;2023-07-09T04:36:46;11.40;;;4.90;;
71896;SDS011;59767;51.344;12.362;2023-07-09T04:39:50;9.93;;;5.10;;
71896;SDS011;59767;51.344;12.362;2023-07-09T04:42:54;11.07;;;5.53;;
71896;SDS011;59767;51.344;12.362;2023-07-09T04:45:58;13.27;;;5.32;;
71896;SDS011;59767;51.344;12.362;2023-07-09T04:49:03;10.98;;;5.40;;
71896;SDS011;59767;51.344;12.362;2023-07-09T04:52:07;11.88;;;4.90;;
71896;SDS011;59767;51.344;12.362;2023-07-09T04:55:15;11.27;;;5.00;;
71896;SDS011;59767;51.344;12.362;2023-07-09T04:58:23;15.57;;;5.00;;
71896;SDS011;59767;51.344;12.362;2023-07-09T05:01:27;9.50;;;4.97;;
71896;SDS011;59767;51.344;12.362;2023-07-09T05:04:32;11.13;;;4.95;;
71896;SDS011;59767;51.344;12.362;2023-07-09T05:07:36;11.90;;;5.38;;
71896;SDS011;59767;51.344;12.362;2023-07-09T05:10:40;9.10;;;4.97;;
71896;SDS011;59767;51.344;12.362;2023-07-09T05:13:46;13.73;;;5.32;;
71896;SDS011;59767;51.344;12.362;2023-07-09T05:16:50;9.50;;;5.20;;
71896;SDS011;59767;51.344;12.362;2023-07-09T05:19:54;12.00;;;4.80;;
71896;SDS011;59767;51.344;12.362;2023-07-09T05:22:58;12.52;;;5.22;;
71896;SDS011;59767;51.344;12.362;2023-07-09T05:26:02;11.57;;;5.13;;
71896;SDS011;59767;51.344;12.362;2023-07-09T05:29:07;11.88;;;5.40;;
71896;SDS011;59767;51.344;12.362;2023-07-09T05:32:11;12.35;;;4.97;;
71896;SDS011;59767;51.344;12.362;2023-07-09T05:35:15;11.27;;;5.13;;
71896;SDS011;59767;51.344;12.362;2023-07-09T05:38:20;13.55;;;5.70;;
71896;SDS011;59767;51.344;12.362;2023-07-09T05:41:24;10.75;;;5.32;;
71896;SDS011;59767;51.344;12.362;2023-07-09T05:44:28;11.07;;;4.65;;
71896;SDS011;59767;51.344;12.362;2023-07-09T05:47:32;10.80;;;4.75;;
71896;SDS011;59767;51.344;12.362;2023-07-09T05:50:37;11.77;;;5.13;;
71896;SDS011;59767;51.344;12.362;2023-07-09T05:53:41;8.40;;;4.63;;
71896;SDS011;59767;51.344;12.362;2023-07-09T05:56:45;9.43;;;4.90;;
71896;SDS011;59767;51.344;12.362;2023-07-09T05:59:49;8.73;;;4.80;;
71896;SDS011;59767;51.344;12.362;2023-07-09T06:02:54;12.25;;;4.53;;
71896;SDS011;59767;51.344;12.362;2023-07-09T06:05:58;11.52;;;5.00;;
71896;SDS011;59767;51.344;12.362;2023-07-09T06:09:04;11.55;;;5.15;;
71896;SDS011;59767;51.344;12.362;2023-07-09T06:12:08;9.15;;;4.90;;
71896;SDS011;59767;51.344;12.362;2023-07-09T06:15:13;12.88;;;5.05;;
71896;SDS011;59767;51.344;12.362;2023-07-09T06:18:18;12.48;;;4.90;;
71896;SDS011;59767;51.344;12.362;2023-07-09T06:21:24;13.23;;;5.45;;
71896;SDS011;59767;51.344;12.362;2023-07-09T06:24:28;9.77;;;5.10;;
71896;SDS011;59767;51.344;12.362;2023-07-09T06:27:32;12.88;;;5.38;;
71896;SDS011;59767;51.344;12.362;2023-07-09T06:30:36;12.15;;;5.30;;
71896;SDS011;59767;51.344;12.362;2023-07-09T06:33:40;12.18;;;5.18;;
71896;SDS011;59767;51.344;12.362;2023-07-09T06:36:44;11.38;;;4.72;;
71896;SDS011;59767;51.344;12.362;2023-07-09T06:39:48;9.65;;;4.93;;
71896;SDS011;59767;51.344;12.362;2023-07-09T06:42:52;9.43;;;5.00;;
71896;SDS011;59767;51.344;12.362;2023-07-09T06:45:56;8.93;;;4.53;;
71896;SDS011;59767;51.344;12.362;2023-07-09T06:49:03;10.35;;;4.70;;
71896;SDS011;59767;51.344;12.362;2023-07-09T06:52:09;10.30;;;5.20;;
71896;SDS011;59767;51.344;12.362;2023-07-09T06:55:13;10.82;;;4.78;;
71896;SDS011;59767;51.344;12.362;2023-07-09T06:58:17;11.95;;;4.75;;
71896;SDS011;59767;51.344;12.362;2023-07-09T07:01:21;10.48;;;4.90;;
71896;SDS011;59767;51.344;12.362;2023-07-09T07:04:26;11.13;;;5.13;;
71896;SDS011;59767;51.344;12.362;2023-07-09T07:07:31;10.10;;;5.35;;
71896;SDS011;59767;51.344;12.362;2023-07-09T07:10:36;9.60;;;4.85;;
71896;SDS011;59767;51.344;12.362;2023-07-09T07:13:40;11.38;;;5.22;;
71896;SDS011;59767;51.344;12.362;2023-07-09T07:16:45;10.00;;;4.80;;
71896;SDS011;59767;51.344;12.362;2023-07-09T07:19:49;8.32;;;4.57;;
71896;SDS011;59767;51.344;12.362;2023-07-09T07:22:53;9.88;;;4.85;;
71896;SDS011;59767;51.344;12.362;2023-07-09T07:25:57;12.48;;;4.65;;
71896;SDS011;59767;51.344;12.362;2023-07-09T07:29:02;11.23;;;5.00;;
71896;SDS011;59767;51.344;12.362;2023-07-09T07:32:06;11.18;;;4.90;;
71896;SDS011;59767;51.344;12.362;2023-07-09T07:35:11;9.45;;;4.57;;
71896;SDS011;59767;51.344;12.362;2023-07-09T07:38:17;11.27;;;4.32;;
71896;SDS011;59767;51.344;12.362;2023-07-09T07:41:21;8.77;;;4.45;;
71896;SDS011;59767;51.344;12.362;2023-07-09T07:44:25;9.65;;;4.55;;
71896;SDS011;59767;51.344;12.362;2023-07-09T07:47:29;14.20;;;4.50;;
71896;SDS011;59767;51.344;12.362;2023-07-09T07:50:34;9.93;;;4.30;;
71896;SDS011;59767;51.344;12.362;2023-07-09T07:53:38;8.50;;;4.32;;
71896;SDS011;59767;51.344;12.362;2023-07-09T07:56:42;8.75;;;4.35;;
71896;SDS011;59767;51.344;12.362;2023-07-09T07:59:46;11.10;;;4.30;;
71896;SDS011;59767;51.344;12.362;2023-07-09T08:02:50;11.57;;;4.47;;
71896;SDS011;59767;51.344;12.362;2023-07-09T08:05:54;8.25;;;4.38;;
71896;SDS011;59767;51.344;12.362;2023-07-09T08:08:59;7.95;;;4.03;;
71896;SDS011;59767;51.344;12.362;2023-07-09T08:12:03;9.20;;;4.30;;
71896;SDS011;59767;51.344;12.362;2023-07-09T08:15:17;10.07;;;4.70;;
71896;SDS011;59767;51.344;12.362;2023-07-09T08:18:21;10.18;;;4.20;;
71896;SDS011;59767;51.344;12.362;2023-07-09T08:21:26;11.45;;;5.07;;
71896;SDS011;59767;51.344;12.362;2023-07-09T08:24:30;8.25;;;4.30;;
71896;SDS011;59767;51.344;12.362;2023-07-09T08:27:34;10.75;;;4.22;;
71896;SDS011;59767;51.344;12.362;2023-07-09T08:30:38;8.88;;;3.88;;
71896;SDS011;59767;51.344;12.362;2023-07-09T08:33:42;9.23;;;4.00;;
71896;SDS011;59767;51.344;12.362;2023-07-09T08:36:46;8.25;;;3.90;;
71896;SDS011;59767;51.344;12.362;2023-07-09T08:39:50;7.30;;;3.85;;
71896;SDS011;59767;51.344;12.362;2023-07-09T08:42:56;9.05;;;4.40;;
71896;SDS011;59767;51.344;12.362;2023-07-09T08:46:13;11.55;;;4.38;;
71896;SDS011;59767;51.344;12.362;2023-07-09T08:49:43;9.52;;;4.30;;
71896;SDS011;59767;51.344;12.362;2023-07-09T08:52:54;9.02;;;4.03;;
71896;SDS011;59767;51.344;12.362;2023-07-09T08:56:01;6.97;;;3.80;;
71896;SDS011;59767;51.344;12.362;2023-07-09T08:59:07;8.55;;;4.15;;
71896;SDS011;59767;51.344;12.362;2023-07-09T09:02:22;6.25;;;3.47;;
71896;SDS011;59767;51.344;12.362;2023-07-09T09:05:38;7.70;;;4.15;;
71896;SDS011;59767;51.344;12.362;2023-07-09T09:15:17;7.43;;;3.50;;
71896;SDS011;59767;51.344;12.362;2023-07-09T09:18:25;7.10;;;3.58;;
71896;SDS011;59767;51.344;12.362;2023-07-09T09:21:35;7.20;;;3.75;;
71896;SDS011;59767;51.344;12.362;2023-07-09T09:25:03;10.05;;;3.80;;
71896;SDS011;59767;51.344;12.362;2023-07-09T09:28:23;7.95;;;3.55;;
71896;SDS011;59767;51.344;12.362;2023-07-09T09:31:30;9.77;;;4.18;;
71896;SDS011;59767;51.344;12.362;2023-07-09T09:34:34;8.00;;;3.75;;
71896;SDS011;59767;51.344;12.362;2023-07-09T09:37:38;9.18;;;3.53;;
71896;SDS011;59767;51.344;12.362;2023-07-09T09:40:43;9.07;;;3.67;;
71896;SDS011;59767;51.344;12.362;2023-07-09T09:43:50;6.50;;;3.60;;
71896;SDS011;59767;51.344;12.362;2023-07-09T09:46:56;9.50;;;4.05;;
71896;SDS011;59767;51.344;12.362;2023-07-09T09:50:04;11.75;;;3.88;;
71896;SDS011;59767;51.344;12.362;2023-07-09T09:53:08;7.32;;;3.70;;
71896;SDS011;59767;51.344;12.362;2023-07-09T09:56:35;7.70;;;3.92;;
71896;SDS011;59767;51.344;12.362;2023-07-09T09:59:40;7.28;;;3.80;;
71896;SDS011;59767;51.344;12.362;2023-07-09T10:02:46;9.98;;;4.10;;
71896;SDS011;59767;51.344;12.362;2023-07-09T10:05:51;12.68;;;3.92;;
71896;SDS011;59767;51.344;12.362;2023-07-09T10:09:23;10.82;;;3.90;;
71896;SDS011;59767;51.344;12.362;2023-07-09T10:19:17;7.07;;;3.78;;
71896;SDS011;59767;51.344;12.362;2023-07-09T10:33:26;6.72;;;3.55;;
71896;SDS011;59767;51.344;12.362;2023-07-09T10:36:46;6.63;;;3.75;;
71896;SDS011;59767;51.344;12.362;2023-07-09T10:40:02;9.80;;;3.60;;
71896;SDS011;59767;51.344;12.362;2023-07-09T10:43:53;8.60;;;4.05;;
71896;SDS011;59767;51.344;12.362;2023-07-09T10:46:42;6.73;;;3.90;;
71896;SDS011;59767;51.344;12.362;2023-07-09T10:49:49;7.68;;;3.90;;
71896;SDS011;59767;51.344;12.362;2023-07-09T10:52:54;10.25;;;3.95;;
71896;SDS011;59767;51.344;12.362;2023-07-09T10:56:09;9.98;;;3.95;;
71896;SDS011;59767;51.344;12.362;2023-07-09T11:02:34;9.48;;;4.22;;
71896;SDS011;59767;51.344;12.362;2023-07-09T11:05:40;9.70;;;3.72;;
71896;SDS011;59767;51.344;12.362;2023-07-09T11:08:45;9.38;;;4.20;;
71896;SDS011;59767;51.344;12.362;2023-07-09T11:11:53;9.60;;;4.03;;
71896;SDS011;59767;51.344;12.362;2023-07-09T11:15:02;8.35;;;4.30;;
71896;SDS011;59767;51.344;12.362;2023-07-09T11:18:21;7.47;;;4.20;;
71896;SDS011;59767;51.344;12.362;2023-07-09T11:21:27;9.32;;;3.70;;
71896;SDS011;59767;51.344;12.362;2023-07-09T11:24:50;9.90;;;4.13;;
71896;SDS011;59767;51.344;12.362;2023-07-09T11:28:03;9.85;;;3.80;;
71896;SDS011;59767;51.344;12.362;2023-07-09T11:31:43;8.30;;;4.45;;
71896;SDS011;59767;51.344;12.362;2023-07-09T11:34:44;8.55;;;3.97;;
71896;SDS011;59767;51.344;12.362;2023-07-09T11:37:53;6.55;;;3.70;;
71896;SDS011;59767;51.344;12.362;2023-07-09T11:40:58;11.30;;;4.10;;
71896;SDS011;59767;51.344;12.362;2023-07-09T11:44:04;11.63;;;4.32;;
71896;SDS011;59767;51.344;12.362;2023-07-09T11:47:40;9.02;;;4.32;;
71896;SDS011;59767;51.344;12.362;2023-07-09T11:50:48;7.15;;;4.10;;
71896;SDS011;59767;51.344;12.362;2023-07-09T11:53:54;7.63;;;4.20;;
71896;SDS011;59767;51.344;12.362;2023-07-09T11:56:58;9.18;;;4.18;;
71896;SDS011;59767;51.344;12.362;2023-07-09T12:00:05;9.35;;;4.20;;
71896;SDS011;59767;51.344;12.362;2023-07-09T12:03:14;9.02;;;4.30;;
71896;SDS011;59767;51.344;12.362;2023-07-09T12:06:23;8.73;;;4.80;;
71896;SDS011;59767;51.344;12.362;2023-07-09T12:09:31;9.63;;;4.45;;
71896;SDS011;59767;51.344;12.362;2023-07-09T12:12:42;7.75;;;4.47;;
71896;SDS011;59767;51.344;12.362;2023-07-09T12:15:47;7.22;;;4.25;;
71896;SDS011;59767;51.344;12.362;2023-07-09T12:18:51;6.90;;;3.92;;
71896;SDS011;59767;51.344;12.362;2023-07-09T12:21:57;10.02;;;4.65;;
71896;SDS011;59767;51.344;12.362;2023-07-09T12:25:02;10.50;;;4.07;;
71896;SDS011;59767;51.344;12.362;2023-07-09T12:28:21;7.13;;;4.20;;
71896;SDS011;59767;51.344;12.362;2023-07-09T12:31:26;8.45;;;4.72;;
71896;SDS011;59767;51.344;12.362;2023-07-09T12:34:32;8.68;;;4.35;;
71896;SDS011;59767;51.344;12.362;2023-07-09T12:37:37;10.68;;;4.63;;
71896;SDS011;59767;51.344;12.362;2023-07-09T12:40:40;7.93;;;4.45;;
71896;SDS011;59767;51.344;12.362;2023-07-09T12:43:45;10.38;;;4.50;;
71896;SDS011;59767;51.344;12.362;2023-07-09T12:46:50;8.75;;;4.40;;
71896;SDS011;59767;51.344;12.362;2023-07-09T12:50:09;11.45;;;4.80;;
71896;SDS011;59767;51.344;12.362;2023-07-09T12:53:37;6.60;;;3.97;;
71896;SDS011;59767;51.344;12.362;2023-07-09T12:56:43;7.60;;;4.50;;
71896;SDS011;59767;51.344;12.362;2023-07-09T12:59:48;11.43;;;4.43;;
71896;SDS011;59767;51.344;12.362;2023-07-09T13:02:53;8.07;;;4.15;;
71896;SDS011;59767;51.344;12.362;2023-07-09T13:06:01;10.23;;;4.45;;
71896;SDS011;59767;51.344;12.362;2023-07-09T13:09:20;11.75;;;4.75;;
71896;SDS011;59767;51.344;12.362;2023-07-09T13:12:30;11.35;;;4.40;;
71896;SDS011;59767;51.344;12.362;2023-07-09T13:15:39;8.40;;;4.28;;
71896;SDS011;59767;51.344;12.362;2023-07-09T13:18:46;8.75;;;4.25;;
71896;SDS011;59767;51.344;12.362;2023-07-09T13:21:52;8.65;;;4.35;;
71896;SDS011;59767;51.344;12.362;2023-07-09T13:24:57;8.80;;;4.20;;
71896;SDS011;59767;51.344;12.362;2023-07-09T13:28:01;10.18;;;4.50;;
71896;SDS011;59767;51.344;12.362;2023-07-09T13:31:11;10.65;;;4.40;;
71896;SDS011;59767;51.344;12.362;2023-07-09T13:34:20;11.63;;;4.40;;
71896;SDS011;59767;51.344;12.362;2023-07-09T13:37:28;8.32;;;4.38;;
71896;SDS011;59767;51.344;12.362;2023-07-09T13:40:32;8.38;;;4.32;;
71896;SDS011;59767;51.344;12.362;2023-07-09T13:43:36;11.02;;;4.40;;
71896;SDS011;59767;51.344;12.362;2023-07-09T13:46:41;10.52;;;4.55;;
71896;SDS011;59767;51.344;12.362;2023-07-09T13:49:46;8.30;;;4.18;;
71896;SDS011;59767;51.344;12.362;2023-07-09T13:52:50;9.27;;;4.35;;
71896;SDS011;59767;51.344;12.362;2023-07-09T13:55:54;11.48;;;5.10;;
71896;SDS011;59767;51.344;12.362;2023-07-09T13:58:59;9.18;;;4.32;;
71896;SDS011;59767;51.344;12.362;2023-07-09T14:02:07;7.97;;;4.38;;
71896;SDS011;59767;51.344;12.362;2023-07-09T14:05:21;8.45;;;4.22;;
71896;SDS011;59767;51.344;12.362;2023-07-09T14:08:25;9.57;;;4.55;;
71896;SDS011;59767;51.344;12.362;2023-07-09T14:11:29;8.60;;;4.32;;
71896;SDS011;59767;51.344;12.362;2023-07-09T14:14:34;9.88;;;4.85;;
71896;SDS011;59767;51.344;12.362;2023-07-09T14:17:38;9.60;;;4.40;;
71896;SDS011;59767;51.344;12.362;2023-07-09T14:20:42;8.93;;;4.57;;
71896;SDS011;59767;51.344;12.362;2023-07-09T14:23:47;8.95;;;4.13;;
71896;SDS011;59767;51.344;12.362;2023-07-09T14:26:51;10.05;;;4.25;;
71896;SDS011;59767;51.344;12.362;2023-07-09T14:29:57;9.02;;;4.22;;
71896;SDS011;59767;51.344;12.362;2023-07-09T14:33:03;12.32;;;4.38;;
71896;SDS011;59767;51.344;12.362;2023-07-09T14:36:12;9.00;;;4.10;;
71896;SDS011;59767;51.344;12.362;2023-07-09T14:39:17;8.85;;;4.43;;
71896;SDS011;59767;51.344;12.362;2023-07-09T14:42:21;10.38;;;4.85;;
71896;SDS011;59767;51.344;12.362;2023-07-09T14:45:26;10.52;;;4.47;;
71896;SDS011;59767;51.344;12.362;2023-07-09T14:48:33;10.20;;;4.60;;
71896;SDS011;59767;51.344;12.362;2023-07-09T14:51:37;12.52;;;4.15;;
71896;SDS011;59767;51.344;12.362;2023-07-09T14:54:41;8.60;;;4.32;;
71896;SDS011;59767;51.344;12.362;2023-07-09T14:57:46;10.55;;;4.70;;
71896;SDS011;59767;51.344;12.362;2023-07-09T15:00:50;9.95;;;4.50;;
71896;SDS011;59767;51.344;12.362;2023-07-09T15:03:55;9.30;;;4.60;;
71896;SDS011;59767;51.344;12.362;2023-07-09T15:06:59;9.65;;;4.30;;
71896;SDS011;59767;51.344;12.362;2023-07-09T15:10:04;9.02;;;4.25;;
71896;SDS011;59767;51.344;12.362;2023-07-09T15:13:25;9.27;;;4.40;;
71896;SDS011;59767;51.344;12.362;2023-07-09T15:16:35;9.15;;;4.50;;
71896;SDS011;59767;51.344;12.362;2023-07-09T15:19:39;10.45;;;4.40;;
71896;SDS011;59767;51.344;12.362;2023-07-09T15:22:44;10.82;;;4.45;;
71896;SDS011;59767;51.344;12.362;2023-07-09T15:25:49;8.50;;;4.38;;
71896;SDS011;59767;51.344;12.362;2023-07-09T15:28:53;8.35;;;3.97;;
71896;SDS011;59767;51.344;12.362;2023-07-09T15:31:58;15.57;;;4.43;;
71896;SDS011;59767;51.344;12.362;2023-07-09T15:35:03;8.55;;;4.30;;
71896;SDS011;59767;51.344;12.362;2023-07-09T15:38:21;8.35;;;4.20;;
71896;SDS011;59767;51.344;12.362;2023-07-09T15:41:33;10.10;;;4.13;;
71896;SDS011;59767;51.344;12.362;2023-07-09T15:44:37;10.57;;;4.43;;
71896;SDS011;59767;51.344;12.362;2023-07-09T15:47:41;11.70;;;4.60;;
71896;SDS011;59767;51.344;12.362;2023-07-09T15:50:45;9.25;;;4.10;;
71896;SDS011;59767;51.344;12.362;2023-07-09T15:53:50;7.65;;;4.32;;
71896;SDS011;59767;51.344;12.362;2023-07-09T15:56:54;10.18;;;4.55;;
71896;SDS011;59767;51.344;12.362;2023-07-09T15:59:58;10.70;;;4.80;;
71896;SDS011;59767;51.344;12.362;2023-07-09T16:03:02;9.40;;;4.55;;
71896;SDS011;59767;51.344;12.362;2023-07-09T16:06:22;9.45;;;4.30;;
71896;SDS011;59767;51.344;12.362;2023-07-09T16:09:26;9.52;;;4.38;;
71896;SDS011;59767;51.344;12.362;2023-07-09T16:12:31;8.43;;;4.53;;
71896;SDS011;59767;51.344;12.362;2023-07-09T16:15:35;7.47;;;4.38;;
71896;SDS011;59767;51.344;12.362;2023-07-09T16:18:39;8.77;;;4.53;;
71896;SDS011;59767;51.344;12.362;2023-07-09T16:21:43;8.50;;;4.40;;
71896;SDS011;59767;51.344;12.362;2023-07-09T16:24:48;11.63;;;4.82;;
71896;SDS011;59767;51.344;12.362;2023-07-09T16:27:53;12.32;;;4.63;;
71896;SDS011;59767;51.344;12.362;2023-07-09T16:30:57;9.43;;;4.43;;
71896;SDS011;59767;51.344;12.362;2023-07-09T16:34:01;8.45;;;4.47;;
71896;SDS011;59767;51.344;12.362;2023-07-09T16:37:06;10.23;;;4.70;;
71896;SDS011;59767;51.344;12.362;2023-07-09T16:40:22;7.93;;;4.32;;
71896;SDS011;59767;51.344;12.362;2023-07-09T16:43:27;9.05;;;4.40;;
71896;SDS011;59767;51.344;12.362;2023-07-09T16:46:31;7.60;;;4.30;;
71896;SDS011;59767;51.344;12.362;2023-07-09T16:49:37;10.52;;;4.88;;
71896;SDS011;59767;51.344;12.362;2023-07-09T16:52:43;10.07;;;4.45;;
71896;SDS011;59767;51.344;12.362;2023-07-09T16:55:48;8.90;;;4.10;;
71896;SDS011;59767;51.344;12.362;2023-07-09T16:58:53;10.95;;;4.43;;
71896;SDS011;59767;51.344;12.362;2023-07-09T17:01:57;11.00;;;4.45;;
71896;SDS011;59767;51.344;12.362;2023-07-09T17:05:02;13.43;;;4.75;;
71896;SDS011;59767;51.344;12.362;2023-07-09T17:08:10;9.98;;;4.40;;
71896;SDS011;59767;51.344;12.362;2023-07-09T17:11:14;9.55;;;4.57;;
71896;SDS011;59767;51.344;12.362;2023-07-09T17:14:18;10.70;;;4.38;;
71896;SDS011;59767;51.344;12.362;2023-07-09T17:17:24;10.95;;;4.22;;
71896;SDS011;59767;51.344;12.362;2023-07-09T17:20:30;9.13;;;4.40;;
71896;SDS011;59767;51.344;12.362;2023-07-09T17:23:34;9.82;;;4.60;;
71896;SDS011;59767;51.344;12.362;2023-07-09T17:26:38;11.43;;;4.53;;
71896;SDS011;59767;51.344;12.362;2023-07-09T17:29:42;12.68;;;4.75;;
71896;SDS011;59767;51.344;12.362;2023-07-09T17:32:47;11.25;;;4.70;;
71896;SDS011;59767;51.344;12.362;2023-07-09T17:35:51;8.23;;;4.40;;
71896;SDS011;59767;51.344;12.362;2023-07-09T17:38:56;10.57;;;4.63;;
71896;SDS011;59767;51.344;12.362;2023-07-09T17:42:00;12.88;;;4.82;;
71896;SDS011;59767;51.344;12.362;2023-07-09T17:45:05;8.65;;;4.32;;
71896;SDS011;59767;51.344;12.362;2023-07-09T17:48:17;9.55;;;4.90;;
71896;SDS011;59767;51.344;12.362;2023-07-09T17:51:22;8.45;;;4.47;;
71896;SDS011;59767;51.344;12.362;2023-07-09T17:54:27;12.07;;;4.90;;
71896;SDS011;59767;51.344;12.362;2023-07-09T17:57:31;12.05;;;4.35;;
71896;SDS011;59767;51.344;12.362;2023-07-09T18:00:35;10.75;;;5.00;;
71896;SDS011;59767;51.344;12.362;2023-07-09T18:03:39;12.30;;;5.00;;
71896;SDS011;59767;51.344;12.362;2023-07-09T18:06:49;13.88;;;4.97;;
71896;SDS011;59767;51.344;12.362;2023-07-09T18:09:55;10.02;;;4.85;;
71896;SDS011;59767;51.344;12.362;2023-07-09T18:13:06;10.65;;;5.50;;
71896;SDS011;59767;51.344;12.362;2023-07-09T18:16:14;11.48;;;5.07;;
71896;SDS011;59767;51.344;12.362;2023-07-09T18:19:22;12.20;;;5.10;;
71896;SDS011;59767;51.344;12.362;2023-07-09T18:22:29;10.60;;;4.75;;
71896;SDS011;59767;51.344;12.362;2023-07-09T18:25:39;11.43;;;4.90;;
71896;SDS011;59767;51.344;12.362;2023-07-09T18:28:46;11.35;;;5.10;;
71896;SDS011;59767;51.344;12.362;2023-07-09T18:31:50;18.92;;;5.28;;
71896;SDS011;59767;51.344;12.362;2023-07-09T18:34:55;12.23;;;4.82;;
71896;SDS011;59767;51.344;12.362;2023-07-09T18:38:02;13.93;;;4.78;;
71896;SDS011;59767;51.344;12.362;2023-07-09T18:41:14;12.15;;;4.70;;
71896;SDS011;59767;51.344;12.362;2023-07-09T18:44:21;11.55;;;5.10;;
71896;SDS011;59767;51.344;12.362;2023-07-09T18:47:26;15.23;;;5.10;;
71896;SDS011;59767;51.344;12.362;2023-07-09T18:50:31;14.93;;;5.18;;